Time;durP1;ratioP1;P1;durP2;ratioP2;P2;SDS_P1;SDS_P2;PMS_P1;PMS_P2;Temp;Humidity;BMP_temperature;BMP_pressure;BME280_temperature;BME280_humidity;BME280_pressure;Samples;Min_cycle;Max_cycle;Signal;HPM_P1;HPM_P2
2023/03/07 00:00:13;;;;;;;12.30;6.70;;;1.90;89.20;;;;;;5032666;28;21018;-74
2023/03/07 00:02:39;;;;;;;7.57;6.03;;;1.80;99.90;;;;;;5044334;28;20429;-69
2023/03/07 00:05:06;;;;;;;9.37;6.37;;;1.90;99.90;;;;;;5051226;28;20492;-72
2023/03/07 00:07:32;;;;;;;7.30;6.70;;;1.90;99.90;;;;;;5038401;28;20522;-70
2023/03/07 00:09:58;;;;;;;15.30;7.77;;;1.80;99.90;;;;;;5053027;28;20453;-74
2023/03/07 00:12:24;;;;;;;9.77;7.13;;;1.90;99.90;;;;;;5041637;28;20850;-69
2023/03/07 00:14:50;;;;;;;14.03;7.27;;;1.90;99.90;;;;;;5032179;28;20532;-74
2023/03/07 00:17:15;;;;;;;9.07;7.93;;;1.80;99.90;;;;;;5033149;28;20460;-74
2023/03/07 00:19:42;;;;;;;11.53;8.77;;;1.80;99.90;;;;;;5032208;28;20270;-74
2023/03/07 00:22:09;;;;;;;10.13;6.93;;;1.80;99.90;;;;;;5039139;28;20437;-73
2023/03/07 00:24:35;;;;;;;9.13;7.43;;;1.80;99.90;;;;;;5052078;28;20409;-69
2023/03/07 00:27:00;;;;;;;12.20;8.70;;;1.80;99.90;;;;;;5053057;28;20774;-69
2023/03/07 00:29:26;;;;;;;12.40;8.17;;;1.80;99.90;;;;;;5052672;28;20405;-73
2023/03/07 00:31:52;;;;;;;10.67;7.90;;;1.80;99.90;;;;;;5051863;28;20186;-69
2023/03/07 00:34:18;;;;;;;11.53;9.30;;;1.90;99.90;;;;;;5051286;28;20421;-76
2023/03/07 00:36:43;;;;;;;13.67;10.27;;;1.80;99.90;;;;;;5033806;28;20199;-69
2023/03/07 00:39:09;;;;;;;14.53;10.00;;;1.80;99.90;;;;;;5031310;28;21010;-73
2023/03/07 00:41:35;;;;;;;15.37;9.30;;;1.80;99.90;;;;;;5034815;28;20167;-69
2023/03/07 00:44:01;;;;;;;15.17;10.87;;;1.80;99.90;;;;;;5052581;28;20401;-72
2023/03/07 00:46:27;;;;;;;12.90;9.30;;;1.80;99.90;;;;;;5051961;28;20568;-69
2023/03/07 00:48:52;;;;;;;18.73;10.70;;;1.90;99.90;;;;;;5047176;28;20175;-74
2023/03/07 00:51:21;;;;;;;13.13;9.20;;;1.90;99.90;;;;;;5051263;28;20281;-69
2023/03/07 00:53:46;;;;;;;16.03;10.73;;;1.80;99.90;;;;;;5032785;28;20589;-72
2023/03/07 00:56:21;;;;;;;13.47;8.00;;;1.80;99.90;;;;;;5032041;28;20457;-73
2023/03/07 00:58:47;;;;;;;18.70;10.25;;;1.90;99.90;;;;;;5032710;28;20159;-69
2023/03/07 01:01:16;;;;;;;13.10;10.07;;;1.90;99.90;;;;;;5032010;28;20172;-73
2023/03/07 01:03:42;;;;;;;21.10;10.50;;;1.80;99.90;;;;;;5032358;28;20450;-73
2023/03/07 01:06:13;;;;;;;15.10;10.80;;;1.80;99.90;;;;;;5032261;28;20859;-69
2023/03/07 01:08:38;;;;;;;14.30;9.27;;;1.70;99.90;;;;;;5043695;28;20918;-69
2023/03/07 01:11:05;;;;;;;13.37;10.00;;;1.70;99.90;;;;;;5051547;28;20457;-75
2023/03/07 01:13:33;;;;;;;16.40;11.07;;;1.70;99.90;;;;;;5051599;28;20175;-73
2023/03/07 01:16:22;;;;;;;11.67;9.10;;;1.70;99.90;;;;;;5051595;28;20190;-70
2023/03/07 01:18:51;;;;;;;18.37;11.27;;;1.70;99.90;;;;;;5040652;28;20430;-73
2023/03/07 01:21:28;;;;;;;14.07;10.40;;;1.70;99.90;;;;;;5032471;28;20430;-71
2023/03/07 01:23:54;;;;;;;18.83;13.07;;;1.70;99.90;;;;;;5040125;28;20443;-70
2023/03/07 01:26:28;;;;;;;13.25;9.40;;;1.70;99.90;;;;;;5050649;28;20441;-70
2023/03/07 01:28:57;;;;;;;19.10;11.57;;;1.70;99.90;;;;;;5052530;28;20175;-70
2023/03/07 01:31:23;;;;;;;13.97;10.87;;;1.70;99.90;;;;;;5052161;28;20255;-75
2023/03/07 01:33:51;;;;;;;18.57;11.50;;;1.70;99.90;;;;;;5042928;28;20425;-75
2023/03/07 01:36:21;;;;;;;16.90;11.67;;;1.70;99.90;;;;;;5049848;28;20465;-74
2023/03/07 01:38:48;;;;;;;16.17;10.57;;;1.70;1.00;;;;;;5052396;28;20402;-71
2023/03/07 01:41:15;;;;;;;15.20;10.73;;;1.70;1.00;;;;;;5054391;28;20408;-73
2023/03/07 01:43:40;;;;;;;15.88;10.98;;;1.70;1.00;;;;;;5053669;28;20187;-74
2023/03/07 01:46:24;;;;;;;16.80;12.27;;;1.70;1.00;;;;;;5053721;28;20190;-74
2023/03/07 01:49:08;;;;;;;15.50;11.82;;;1.70;1.00;;;;;;5047379;28;20271;-72
2023/03/07 01:51:36;;;;;;;15.00;11.07;;;1.70;1.00;;;;;;5055694;28;20206;-73
2023/03/07 01:54:03;;;;;;;20.48;13.60;;;1.70;1.00;;;;;;5036175;28;20958;-73
2023/03/07 01:56:30;;;;;;;17.37;11.93;;;1.70;1.00;;;;;;5034850;28;20198;-74
2023/03/07 01:58:56;;;;;;;17.27;12.37;;;1.70;1.00;;;;;;5035709;28;20414;-71
2023/03/07 02:01:24;;;;;;;20.30;13.68;;;1.70;1.00;;;;;;5043118;28;20442;-75
2023/03/07 02:04:02;;;;;;;19.47;13.77;;;1.70;1.00;;;;;;5040531;28;20564;-75
2023/03/07 02:06:30;;;;;;;24.75;14.40;;;1.70;1.00;;;;;;5034714;28;20787;-73
2023/03/07 02:08:57;;;;;;;23.35;14.13;;;1.70;1.00;;;;;;5035558;28;20187;-76
2023/03/07 02:11:24;;;;;;;16.73;11.05;;;1.80;1.00;;;;;;5034806;28;20656;-75
2023/03/07 02:13:50;;;;;;;21.90;14.17;;;1.70;1.00;;;;;;5049521;28;20189;-73
2023/03/07 02:16:16;;;;;;;18.80;11.70;;;1.80;1.00;;;;;;5053104;28;20425;-72
2023/03/07 02:18:44;;;;;;;22.53;15.80;;;1.80;1.00;;;;;;5040399;28;20184;-75
2023/03/07 02:21:38;;;;;;;25.42;15.27;;;1.80;1.00;;;;;;5033909;28;20194;-72
2023/03/07 02:24:25;;;;;;;25.13;15.25;;;1.80;1.00;;;;;;5034284;28;20187;-73
2023/03/07 02:26:52;;;;;;;25.58;14.98;;;1.90;1.00;;;;;;5035229;28;20186;-72
2023/03/07 02:29:18;;;;;;;21.67;14.68;;;1.80;1.00;;;;;;5034910;28;20250;-75
2023/03/07 02:31:44;;;;;;;19.20;12.98;;;1.80;1.00;;;;;;5045053;28;20210;-75
2023/03/07 02:34:20;;;;;;;21.87;14.83;;;1.90;1.00;;;;;;5054559;28;20178;-72
2023/03/07 02:37:08;;;;;;;30.88;15.18;;;1.90;1.00;;;;;;5053617;28;20441;-72
2023/03/07 02:39:34;;;;;;;27.17;17.27;;;1.90;1.00;;;;;;5054633;28;20179;-72
2023/03/07 02:42:07;;;;;;;27.40;18.48;;;1.90;1.00;;;;;;5053745;28;20271;-74
2023/03/07 02:44:33;;;;;;;21.13;14.77;;;1.90;1.00;;;;;;5053889;28;20163;-74
2023/03/07 02:46:58;;;;;;;22.93;13.60;;;1.90;1.00;;;;;;5038327;28;20537;-72
2023/03/07 02:49:24;;;;;;;24.47;15.00;;;2.00;1.00;;;;;;5034692;28;20163;-70
2023/03/07 02:51:50;;;;;;;30.90;17.70;;;2.00;1.00;;;;;;5032913;28;20294;-72
2023/03/07 02:54:15;;;;;;;27.87;16.40;;;2.00;1.00;;;;;;5034473;28;20178;-71
2023/03/07 02:56:41;;;;;;;30.37;17.87;;;2.10;1.00;;;;;;5033980;28;20657;-74
2023/03/07 02:59:07;;;;;;;25.03;14.70;;;2.00;1.00;;;;;;5044044;28;20175;-74
2023/03/07 03:01:33;;;;;;;25.27;16.60;;;2.10;1.00;;;;;;5047359;28;20429;-71
2023/03/07 03:03:59;;;;;;;22.43;13.90;;;2.10;1.00;;;;;;5053667;28;20250;-75
2023/03/07 03:06:24;;;;;;;28.57;16.33;;;2.10;1.00;;;;;;5053176;28;20281;-72
2023/03/07 03:08:50;;;;;;;29.53;17.10;;;2.20;1.00;;;;;;5053298;28;20217;-75
2023/03/07 03:11:16;;;;;;;25.47;16.73;;;2.20;1.00;;;;;;5053118;28;20205;-75
2023/03/07 03:13:41;;;;;;;31.23;17.20;;;2.30;12.30;;;;;;5054189;28;20639;-74
2023/03/07 03:16:07;;;;;;;26.33;16.30;;;2.30;26.50;;;;;;5031960;28;20207;-70
2023/03/07 03:18:33;;;;;;;29.33;14.93;;;2.30;26.50;;;;;;5034097;28;20160;-74
2023/03/07 03:20:58;;;;;;;24.37;14.70;;;2.30;26.50;;;;;;5043629;28;20544;-72
2023/03/07 03:23:27;;;;;;;23.93;15.83;;;2.30;33.30;;;;;;5052903;28;20179;-73
2023/03/07 03:26:00;;;;;;;27.73;15.77;;;2.40;42.50;;;;;;5050578;28;20594;-74
2023/03/07 03:28:26;;;;;;;26.07;16.57;;;2.40;51.50;;;;;;5053865;28;20790;-74
2023/03/07 03:31:04;;;;;;;20.73;13.00;;;2.40;50.50;;;;;;5043801;28;20452;-72
2023/03/07 03:33:30;;;;;;;26.47;15.23;;;2.50;53.10;;;;;;5052922;28;20668;-70
2023/03/07 03:35:57;;;;;;;18.97;12.77;;;2.50;54.70;;;;;;5051450;28;20453;-72
2023/03/07 03:38:24;;;;;;;21.10;12.27;;;2.50;54.20;;;;;;5053677;28;20416;-72
2023/03/07 03:40:50;;;;;;;19.17;13.03;;;2.40;52.00;;;;;;5053123;28;20402;-73
2023/03/07 03:43:16;;;;;;;17.00;12.00;;;2.50;49.60;;;;;;5043903;28;20847;-74
2023/03/07 03:45:42;;;;;;;16.50;11.53;;;2.50;53.40;;;;;;5032853;28;20198;-72
2023/03/07 03:48:08;;;;;;;17.00;10.70;;;2.50;49.40;;;;;;5033589;28;20402;-74
2023/03/07 03:50:34;;;;;;;22.23;11.90;;;2.60;41.60;;;;;;5033406;28;20438;-73
2023/03/07 03:53:03;;;;;;;14.70;9.70;;;2.50;36.90;;;;;;5033202;28;20215;-73
2023/03/07 03:55:28;;;;;;;21.37;12.30;;;2.50;27.50;;;;;;5032658;28;20179;-72
2023/03/07 03:57:54;;;;;;;15.27;9.40;;;2.60;26.70;;;;;;5032912;28;20433;-71
2023/03/07 04:00:20;;;;;;;21.70;12.37;;;2.50;26.70;;;;;;5032913;28;20225;-72
2023/03/07 04:02:46;;;;;;;19.50;10.70;;;2.50;16.60;;;;;;5032432;28;20191;-72
2023/03/07 04:05:12;;;;;;;20.57;11.03;;;2.50;11.30;;;;;;5038229;28;20252;-71
2023/03/07 04:07:38;;;;;;;18.17;10.33;;;2.50;5.90;;;;;;5052093;28;20813;-72
2023/03/07 04:10:04;;;;;;;19.10;9.30;;;2.40;3.30;;;;;;5052146;28;20199;-73
2023/03/07 04:12:31;;;;;;;18.43;9.03;;;2.50;4.30;;;;;;5046626;28;20425;-72
2023/03/07 04:14:56;;;;;;;16.80;10.33;;;2.50;3.20;;;;;;5049541;28;20445;-71
2023/03/07 04:17:22;;;;;;;12.87;8.20;;;2.60;1.00;;;;;;5052577;28;20409;-71
2023/03/07 04:19:48;;;;;;;10.40;9.07;;;2.60;1.00;;;;;;5050853;28;20174;-74
2023/03/07 04:22:13;;;;;;;14.20;8.17;;;2.60;1.00;;;;;;5052326;28;20262;-73
2023/03/07 04:24:39;;;;;;;10.80;7.00;;;2.70;1.00;;;;;;5051974;28;20198;-72
2023/03/07 04:27:06;;;;;;;14.67;8.63;;;2.70;1.00;;;;;;5051638;28;20197;-74
2023/03/07 04:29:32;;;;;;;12.00;8.00;;;2.70;1.00;;;;;;5031882;28;20217;-70
2023/03/07 04:31:58;;;;;;;14.80;8.60;;;2.70;1.00;;;;;;5049599;28;20980;-70
2023/03/07 04:34:24;;;;;;;13.60;7.73;;;2.70;1.00;;;;;;5051894;28;20566;-74
2023/03/07 04:36:50;;;;;;;14.43;7.70;;;2.80;1.00;;;;;;5051506;28;20504;-73
2023/03/07 04:39:16;;;;;;;10.93;7.77;;;2.80;1.00;;;;;;5052954;28;20398;-74
2023/03/07 04:41:41;;;;;;;10.03;6.67;;;2.80;1.00;;;;;;5051733;28;20163;-72
2023/03/07 04:44:07;;;;;;;13.43;7.17;;;2.80;1.00;;;;;;5032355;28;20791;-70
2023/03/07 04:46:33;;;;;;;14.80;6.50;;;2.80;1.00;;;;;;5032145;28;20672;-70
2023/03/07 04:48:59;;;;;;;12.50;7.30;;;2.90;1.00;;;;;;5045616;28;20181;-72
2023/03/07 04:51:24;;;;;;;10.57;6.53;;;2.90;1.00;;;;;;5052714;28;20199;-73
2023/03/07 04:53:50;;;;;;;17.07;6.93;;;2.90;1.00;;;;;;5040613;28;20178;-69
2023/03/07 04:56:16;;;;;;;7.33;6.07;;;2.90;1.00;;;;;;5031367;28;20283;-72
2023/03/07 04:58:43;;;;;;;12.60;6.50;;;2.90;1.00;;;;;;5032816;28;20168;-73
2023/03/07 05:01:09;;;;;;;6.63;5.93;;;2.90;1.00;;;;;;5032706;28;20468;-72
2023/03/07 05:03:35;;;;;;;8.57;5.73;;;2.90;1.00;;;;;;5046746;28;20437;-70
2023/03/07 05:06:03;;;;;;;8.73;6.47;;;2.90;1.00;;;;;;5037430;28;20504;-69
2023/03/07 05:08:30;;;;;;;9.50;5.43;;;2.90;1.00;;;;;;5042545;28;20174;-73
2023/03/07 05:10:56;;;;;;;9.90;6.27;;;2.90;1.00;;;;;;5051484;28;20475;-73
2023/03/07 05:13:21;;;;;;;7.73;5.30;;;2.90;1.00;;;;;;5051456;28;20523;-70
2023/03/07 05:15:55;;;;;;;4.90;4.50;;;3.00;1.00;;;;;;5051553;28;20457;-69
2023/03/07 05:18:21;;;;;;;4.20;3.87;;;3.00;1.00;;;;;;5055416;28;20408;-74
2023/03/07 05:20:47;;;;;;;5.43;4.90;;;3.00;1.00;;;;;;5055334;28;20415;-69
2023/03/07 05:23:12;;;;;;;11.97;6.10;;;3.00;1.00;;;;;;5034221;28;20429;-73
2023/03/07 05:25:38;;;;;;;7.67;5.33;;;3.00;1.00;;;;;;5034216;28;20602;-73
2023/03/07 05:28:04;;;;;;;6.33;3.37;;;3.10;1.00;;;;;;5036272;28;20672;-73
2023/03/07 05:30:30;;;;;;;4.93;4.20;;;3.00;1.00;;;;;;5040209;28;20206;-72
2023/03/07 05:32:55;;;;;;;5.77;3.93;;;3.10;1.00;;;;;;5055106;28;20179;-73
2023/03/07 05:35:23;;;;;;;10.83;5.30;;;3.10;1.00;;;;;;5054269;28;20252;-67
2023/03/07 05:37:50;;;;;;;7.67;3.50;;;3.00;1.00;;;;;;5037116;28;20259;-73
2023/03/07 05:40:18;;;;;;;13.43;4.63;;;3.00;1.00;;;;;;5036071;28;20487;-69
2023/03/07 05:42:43;;;;;;;14.40;4.73;;;3.00;1.00;;;;;;5034358;28;20868;-70
2023/03/07 05:45:10;;;;;;;10.50;3.90;;;3.10;1.00;;;;;;5034710;28;20469;-70
2023/03/07 05:47:37;;;;;;;4.30;2.67;;;3.00;1.00;;;;;;5035933;28;20184;-67
2023/03/07 05:50:04;;;;;;;4.63;4.03;;;3.00;1.00;;;;;;5035198;28;20458;-69
2023/03/07 05:52:30;;;;;;;5.57;2.80;;;3.00;1.00;;;;;;5034682;28;20441;-70
2023/03/07 05:54:55;;;;;;;3.03;2.70;;;3.00;1.00;;;;;;5050610;28;20495;-73
2023/03/07 05:57:22;;;;;;;5.20;2.27;;;2.90;1.00;;;;;;5055655;28;20175;-74
2023/03/07 05:59:47;;;;;;;9.33;3.70;;;3.00;1.00;;;;;;5055625;28;20213;-73
2023/03/07 06:02:13;;;;;;;4.03;2.50;;;3.00;1.00;;;;;;5050726;28;20456;-69
2023/03/07 06:04:39;;;;;;;10.87;4.23;;;3.00;1.00;;;;;;5054582;28;20190;-69
2023/03/07 06:07:05;;;;;;;6.40;2.30;;;3.00;1.00;;;;;;5055414;28;20406;-70
2023/03/07 06:09:31;;;;;;;6.57;3.30;;;3.00;1.00;;;;;;5055245;28;20759;-74
2023/03/07 06:11:56;;;;;;;5.63;3.10;;;3.00;1.00;;;;;;5052871;28;20233;-69
2023/03/07 06:14:23;;;;;;;4.03;3.13;;;3.00;1.00;;;;;;5049522;28;20528;-75
2023/03/07 06:16:48;;;;;;;11.53;2.30;;;3.00;1.00;;;;;;5041578;28;20278;-68
2023/03/07 06:19:14;;;;;;;2.83;2.53;;;3.00;1.00;;;;;;5053983;28;20512;-68
2023/03/07 06:21:41;;;;;;;4.43;2.53;;;3.00;1.00;;;;;;5055133;28;20597;-75
2023/03/07 06:24:07;;;;;;;7.57;2.40;;;2.90;1.00;;;;;;5033488;28;20180;-69
2023/03/07 06:26:33;;;;;;;7.80;2.47;;;2.80;1.00;;;;;;5034207;28;20768;-75
2023/03/07 06:28:59;;;;;;;2.70;2.17;;;2.70;1.00;;;;;;5033097;28;20176;-70
2023/03/07 06:31:25;;;;;;;3.53;2.53;;;2.60;1.00;;;;;;5044799;28;20206;-70
2023/03/07 06:33:51;;;;;;;10.20;3.10;;;2.60;1.00;;;;;;5053852;28;20429;-73
2023/03/07 06:36:18;;;;;;;7.93;2.97;;;2.60;1.00;;;;;;5052920;28;20469;-68
2023/03/07 06:38:44;;;;;;;4.60;2.60;;;2.60;1.00;;;;;;5053793;28;20421;-68
2023/03/07 06:41:10;;;;;;;11.20;2.33;;;2.80;1.00;;;;;;5045950;28;20443;-74
2023/03/07 06:43:36;;;;;;;4.17;2.17;;;2.90;1.00;;;;;;5048837;28;20186;-77
2023/03/07 06:46:02;;;;;;;4.37;2.30;;;2.90;1.00;;;;;;5049939;28;20249;-74
2023/03/07 06:48:28;;;;;;;5.90;2.90;;;3.10;1.00;;;;;;5047178;28;20194;-75
2023/03/07 06:50:53;;;;;;;6.17;2.67;;;3.10;1.00;;;;;;5049289;28;20845;-75
2023/03/07 06:53:19;;;;;;;16.70;2.97;;;3.20;1.00;;;;;;5051963;28;20428;-75
2023/03/07 06:55:51;;;;;;;6.80;5.50;;;3.20;1.00;;;;;;5053603;28;20543;-74
2023/03/07 06:58:17;;;;;;;6.23;2.37;;;3.20;1.00;;;;;;5054590;28;20167;-75
2023/03/07 07:00:44;;;;;;;11.67;4.30;;;3.20;1.00;;;;;;5053419;28;20437;-76
2023/03/07 07:03:17;;;;;;;9.57;2.93;;;3.10;1.00;;;;;;5035180;28;20629;-75
2023/03/07 07:05:42;;;;;;;12.70;3.53;;;3.10;1.00;;;;;;5033079;28;20422;-73
2023/03/07 07:08:08;;;;;;;7.50;2.83;;;3.10;1.00;;;;;;5053886;28;20428;-73
2023/03/07 07:10:34;;;;;;;6.20;2.43;;;3.00;1.00;;;;;;5053297;28;20198;-73
2023/03/07 07:13:00;;;;;;;10.37;2.30;;;2.90;1.00;;;;;;5054380;28;20581;-75
2023/03/07 07:15:25;;;;;;;7.90;2.90;;;2.70;1.00;;;;;;5053285;28;20544;-74
2023/03/07 07:17:51;;;;;;;2.90;2.60;;;2.60;1.00;;;;;;5051041;28;20640;-75
2023/03/07 07:20:17;;;;;;;6.60;2.07;;;2.70;1.00;;;;;;5048056;28;20437;-75
2023/03/07 07:22:43;;;;;;;4.60;1.90;;;2.70;1.00;;;;;;5032843;28;20417;-73
2023/03/07 07:25:09;;;;;;;5.17;2.27;;;2.80;1.00;;;;;;5032210;28;20449;-73
2023/03/07 07:27:36;;;;;;;7.23;3.30;;;2.90;1.00;;;;;;5034989;28;20479;-76
2023/03/07 07:30:03;;;;;;;5.77;2.33;;;3.00;1.00;;;;;;5048657;28;20832;-77
2023/03/07 07:32:29;;;;;;;6.27;3.27;;;3.00;1.00;;;;;;5036431;28;20426;-74
2023/03/07 07:34:54;;;;;;;8.30;2.90;;;3.00;1.00;;;;;;5043203;28;20438;-77
2023/03/07 07:37:20;;;;;;;3.60;2.77;;;3.00;1.00;;;;;;5048661;28;20190;-71
2023/03/07 07:39:47;;;;;;;7.33;3.70;;;3.00;1.00;;;;;;5053308;28;20171;-74
2023/03/07 07:42:13;;;;;;;14.03;3.07;;;3.00;1.00;;;;;;5053676;28;20170;-74
2023/03/07 07:44:38;;;;;;;11.30;3.17;;;3.10;1.00;;;;;;5032144;28;20426;-73
2023/03/07 07:47:04;;;;;;;5.07;2.90;;;3.10;1.00;;;;;;5032507;28;20167;-75
2023/03/07 07:49:30;;;;;;;9.20;2.70;;;3.10;1.00;;;;;;5032162;28;20199;-76
2023/03/07 07:51:56;;;;;;;3.70;2.77;;;3.20;1.00;;;;;;5033495;28;20694;-76
2023/03/07 07:54:21;;;;;;;6.60;2.93;;;3.30;1.00;;;;;;5032662;28;20244;-75
2023/03/07 07:56:47;;;;;;;11.97;4.40;;;3.20;99.90;;;;;;5032887;28;20259;-71
2023/03/07 07:59:13;;;;;;;4.03;2.43;;;3.20;99.90;;;;;;5032223;28;20180;-74
2023/03/07 08:01:39;;;;;;;8.63;2.60;;;3.30;99.90;;;;;;5050277;28;20236;-75
2023/03/07 08:04:04;;;;;;;20.60;2.50;;;3.50;99.90;;;;;;5046015;28;20539;-74
2023/03/07 08:06:30;;;;;;;18.13;3.23;;;3.50;99.90;;;;;;5042282;28;20458;-71
2023/03/07 08:08:56;;;;;;;7.13;3.20;;;3.50;99.90;;;;;;5033485;28;20237;-75
2023/03/07 08:11:22;;;;;;;8.00;2.80;;;3.50;99.90;;;;;;5033255;28;20858;-71
2023/03/07 08:13:49;;;;;;;2.83;2.60;;;3.40;99.90;;;;;;5032653;28;20476;-70
2023/03/07 08:16:17;;;;;;;2.73;2.10;;;3.40;99.90;;;;;;5031107;28;20450;-76
2023/03/07 08:18:56;;;;;;;5.27;2.77;;;3.40;99.90;;;;;;5031720;28;20430;-70
2023/03/07 08:21:24;;;;;;;6.30;3.03;;;3.50;99.90;;;;;;5033123;28;20402;-71
2023/03/07 08:23:49;;;;;;;3.37;3.07;;;3.60;99.90;;;;;;5044801;28;20981;-75
2023/03/07 08:26:16;;;;;;;2.20;2.00;;;3.50;99.90;;;;;;5052134;28;20505;-73
2023/03/07 08:28:42;;;;;;;3.33;2.40;;;3.50;99.90;;;;;;5049781;28;20570;-70
2023/03/07 08:31:13;;;;;;;3.83;2.10;;;3.50;99.90;;;;;;5052897;28;20486;-74
2023/03/07 08:33:40;;;;;;;3.47;2.80;;;3.50;99.90;;;;;;5040350;28;20445;-69
2023/03/07 08:36:06;;;;;;;5.40;2.83;;;3.60;99.90;;;;;;5042672;28;20603;-74
2023/03/07 08:38:32;;;;;;;3.93;1.97;;;3.70;99.90;;;;;;5041163;28;20421;-74
2023/03/07 08:41:03;;;;;;;4.50;2.17;;;4.00;99.90;;;;;;5032013;28;20433;-75
2023/03/07 08:43:29;;;;;;;1.97;1.87;;;4.10;99.90;;;;;;5033012;28;20926;-70
2023/03/07 08:45:55;;;;;;;10.73;3.43;;;4.10;99.90;;;;;;5033778;28;20445;-69
2023/03/07 08:48:21;;;;;;;12.30;2.17;;;4.20;99.90;;;;;;5051900;28;20937;-70
2023/03/07 08:50:47;;;;;;;8.67;1.80;;;4.10;99.90;;;;;;5056056;28;20448;-67
2023/03/07 08:53:13;;;;;;;11.90;2.27;;;4.00;99.90;;;;;;5049883;28;20178;-74
2023/03/07 08:55:39;;;;;;;9.63;2.40;;;3.90;99.90;;;;;;5044347;28;20205;-69
2023/03/07 08:58:05;;;;;;;5.33;2.30;;;3.80;99.90;;;;;;5056430;28;20766;-74
2023/03/07 09:00:31;;;;;;;3.03;2.10;;;3.90;99.90;;;;;;5051108;28;20178;-68
2023/03/07 09:03:00;;;;;;;5.23;2.10;;;4.00;99.90;;;;;;5040541;28;20517;-69
2023/03/07 09:05:27;;;;;;;7.90;2.00;;;3.90;98.70;;;;;;5043813;28;20665;-75
2023/03/07 09:07:53;;;;;;;2.20;1.50;;;4.00;92.90;;;;;;5056574;28;20401;-74
2023/03/07 09:10:19;;;;;;;3.00;2.57;;;4.10;90.40;;;;;;5056536;28;20445;-69
2023/03/07 09:12:46;;;;;;;12.63;2.20;;;4.40;99.90;;;;;;5043660;28;20854;-70
2023/03/07 09:15:12;;;;;;;13.20;3.63;;;4.40;90.50;;;;;;5039618;28;20442;-70
2023/03/07 09:17:37;;;;;;;2.60;1.87;;;4.40;79.10;;;;;;5043546;28;20432;-73
2023/03/07 09:20:05;;;;;;;2.87;2.67;;;4.30;71.90;;;;;;5048952;28;20507;-74
2023/03/07 09:22:30;;;;;;;2.87;2.47;;;4.20;64.00;;;;;;5036456;28;20246;-75
2023/03/07 09:24:56;;;;;;;2.20;2.00;;;4.20;71.70;;;;;;5033687;28;21002;-73
2023/03/07 09:27:22;;;;;;;3.63;1.90;;;4.10;50.30;;;;;;5040218;28;20491;-69
2023/03/07 09:29:47;;;;;;;2.70;2.23;;;4.20;64.60;;;;;;5050634;28;20182;-68
2023/03/07 09:32:13;;;;;;;2.93;2.50;;;4.30;66.70;;;;;;5049175;28;20183;-74
2023/03/07 09:34:39;;;;;;;2.33;1.40;;;4.50;73.00;;;;;;5050225;28;20245;-73
2023/03/07 09:37:05;;;;;;;3.73;2.97;;;4.60;76.60;;;;;;5047493;28;20464;-68
2023/03/07 09:39:31;;;;;;;2.73;2.10;;;4.60;54.10;;;;;;5034213;28;20552;-68
2023/03/07 09:42:18;;;;;;;5.80;2.10;;;4.70;58.50;;;;;;5035616;28;20184;-73
2023/03/07 09:45:11;;;;;;;3.20;3.00;;;4.80;61.50;;;;;;5035064;28;20395;-74
2023/03/07 09:47:42;;;;;;;10.37;2.20;;;4.90;39.70;;;;;;5035948;28;20410;-74
2023/03/07 09:50:19;;;;;;;4.03;2.33;;;4.90;37.70;;;;;;5034751;28;22325;-68
2023/03/07 09:52:45;;;;;;;4.00;1.83;;;4.80;24.40;;;;;;5034283;28;20412;-65
2023/03/07 09:55:16;;;;;;;4.50;2.33;;;4.70;20.00;;;;;;5034828;28;20814;-71
2023/03/07 09:57:50;;;;;;;7.23;3.20;;;4.30;1.00;;;;;;5035834;28;20903;-74
2023/03/07 10:00:44;;;;;;;4.03;2.10;;;4.10;1.00;;;;;;5038193;28;20934;-74
2023/03/07 10:03:54;;;;;;;9.00;2.60;;;3.80;1.00;;;;;;5050372;28;20455;-72
2023/03/07 10:06:31;;;;;;;2.23;2.03;;;3.70;1.00;;;;;;5053336;28;20552;-68
2023/03/07 10:08:58;;;;;;;5.27;2.00;;;3.70;1.00;;;;;;5055410;28;20415;-75
2023/03/07 10:11:45;;;;;;;3.00;2.43;;;3.70;1.00;;;;;;5039148;28;20552;-68
2023/03/07 10:14:46;;;;;;;2.23;2.13;;;3.60;1.00;;;;;;5034977;28;20398;-67
2023/03/07 10:17:14;;;;;;;2.07;1.97;;;3.60;1.00;;;;;;5034473;28;20424;-73
2023/03/07 10:20:01;;;;;;;8.30;1.73;;;3.50;1.00;;;;;;5047043;28;20429;-74
2023/03/07 10:22:38;;;;;;;7.70;2.87;;;3.50;1.00;;;;;;5055299;28;20394;-74
2023/03/07 10:25:22;;;;;;;2.10;1.90;;;3.80;1.00;;;;;;5054310;28;20440;-74
2023/03/07 10:27:52;;;;;;;2.27;1.90;;;4.70;1.00;;;;;;5055056;28;20402;-73
2023/03/07 10:30:19;;;;;;;2.23;2.03;;;5.40;1.00;;;;;;5053992;28;20810;-75
2023/03/07 10:32:46;;;;;;;4.97;2.40;;;5.90;1.00;;;;;;5049865;28;20835;-72
2023/03/07 10:35:23;;;;;;;3.60;2.00;;;6.60;1.00;;;;;;5035211;28;20592;-66
2023/03/07 10:37:54;;;;;;;2.43;1.83;;;6.90;1.00;;;;;;5044047;28;20442;-69
2023/03/07 10:40:33;;;;;;;1.87;1.73;;;6.40;1.00;;;;;;5054873;28;20397;-75
2023/03/07 10:42:59;;;;;;;12.60;2.40;;;5.40;1.00;;;;;;5054899;28;20937;-67
2023/03/07 10:45:29;;;;;;;2.23;1.77;;;5.40;1.00;;;;;;5042442;28;20463;-71
2023/03/07 10:47:59;;;;;;;3.23;2.13;;;5.80;1.00;;;;;;5034276;28;20544;-72
2023/03/07 10:50:48;;;;;;;2.30;2.10;;;6.00;1.00;;;;;;5039803;28;20464;-67
2023/03/07 10:53:26;;;;;;;5.70;1.90;;;5.80;1.00;;;;;;5034866;28;20412;-67
2023/03/07 10:56:07;;;;;;;5.40;2.20;;;5.30;1.00;;;;;;5033699;28;20428;-68
2023/03/07 10:58:32;;;;;;;8.47;2.50;;;5.70;1.00;;;;;;5034635;28;20528;-65
2023/03/07 11:01:06;;;;;;;3.40;2.13;;;6.50;1.00;;;;;;5033960;28;20958;-65
2023/03/07 11:03:43;;;;;;;3.63;2.03;;;6.90;1.00;;;;;;5050811;28;20182;-74
2023/03/07 11:06:29;;;;;;;2.53;2.30;;;7.40;1.00;;;;;;5053381;28;20433;-74
2023/03/07 11:08:55;;;;;;;2.17;1.70;;;7.60;1.00;;;;;;5052928;28;20440;-70
2023/03/07 11:11:31;;;;;;;4.87;1.63;;;7.10;1.00;;;;;;5041649;28;20461;-72
2023/03/07 11:14:09;;;;;;;4.20;2.53;;;6.40;1.00;;;;;;5048027;28;20285;-65
2023/03/07 11:16:58;;;;;;;3.63;1.80;;;6.10;1.00;;;;;;5052464;28;20452;-66
2023/03/07 11:19:30;;;;;;;4.50;1.73;;;6.00;1.00;;;;;;5048846;28;20433;-67
2023/03/07 11:21:57;;;;;;;8.37;2.47;;;6.20;1.00;;;;;;5034130;28;20403;-67
2023/03/07 11:24:34;;;;;;;3.13;1.80;;;6.10;1.00;;;;;;5033243;28;20899;-66
2023/03/07 11:27:00;;;;;;;2.20;2.00;;;6.20;1.00;;;;;;5033090;28;20463;-72
2023/03/07 11:29:32;;;;;;;5.80;2.47;;;6.30;1.00;;;;;;5033069;28;20429;-73
2023/03/07 11:32:18;;;;;;;5.33;1.77;;;6.00;1.00;;;;;;5042807;28;20190;-67
2023/03/07 11:35:06;;;;;;;4.40;2.07;;;6.00;1.00;;;;;;5052815;28;20943;-66
2023/03/07 11:37:46;;;;;;;2.60;2.10;;;5.90;1.00;;;;;;5053017;28;20454;-72
2023/03/07 11:40:21;;;;;;;4.30;2.10;;;5.50;1.00;;;;;;5052647;28;20472;-71
2023/03/07 11:43:14;;;;;;;3.53;1.90;;;5.20;1.00;;;;;;5033477;28;20429;-72
2023/03/07 11:45:49;;;;;;;1.60;1.40;;;5.00;1.00;;;;;;5032424;28;20475;-75
2023/03/07 11:48:41;;;;;;;6.20;2.13;;;4.60;1.00;;;;;;5033600;28;20402;-74
2023/03/07 11:51:25;;;;;;;8.07;2.07;;;4.30;1.00;;;;;;5032155;28;20466;-75
2023/03/07 11:53:58;;;;;;;2.07;1.93;;;4.10;1.00;;;;;;5052017;28;20479;-69
2023/03/07 11:56:39;;;;;;;4.47;2.23;;;4.00;1.00;;;;;;5034125;28;21154;-69
2023/03/07 11:59:27;;;;;;;2.10;1.90;;;4.00;1.00;;;;;;5033522;28;20406;-68
2023/03/07 12:01:58;;;;;;;2.07;1.80;;;3.80;1.00;;;;;;5033604;28;20411;-75
2023/03/07 12:04:55;;;;;;;3.00;1.90;;;3.90;1.00;;;;;;5031456;28;20443;-68
2023/03/07 12:07:40;;;;;;;1.93;1.67;;;3.60;1.00;;;;;;5033397;28;20394;-69
2023/03/07 12:10:35;;;;;;;2.20;2.00;;;3.60;1.00;;;;;;5049478;28;20971;-72
2023/03/07 12:13:30;;;;;;;2.63;2.07;;;4.20;1.00;;;;;;5052453;28;20414;-68
2023/03/07 12:16:26;;;;;;;1.97;1.70;;;4.50;1.00;;;;;;5052379;28;20419;-72
2023/03/07 12:19:16;;;;;;;5.80;2.30;;;5.00;1.00;;;;;;5032991;28;20419;-65
2023/03/07 12:22:05;;;;;;;6.10;2.67;;;5.50;1.00;;;;;;5032323;28;20433;-72
2023/03/07 12:24:37;;;;;;;6.10;1.43;;;5.90;1.00;;;;;;5033776;28;20932;-73
2023/03/07 12:27:28;;;;;;;6.63;1.97;;;6.00;1.00;;;;;;5033151;28;20402;-66
2023/03/07 12:30:02;;;;;;;8.50;3.17;;;5.80;1.00;;;;;;5034656;28;20956;-72
2023/03/07 12:32:31;;;;;;;5.10;2.27;;;5.80;1.00;;;;;;5032596;28;20412;-69
2023/03/07 12:35:00;;;;;;;2.90;2.30;;;5.80;1.00;;;;;;5032069;28;20459;-67
2023/03/07 12:37:40;;;;;;;6.70;2.30;;;5.80;1.00;;;;;;5051334;28;20427;-71
2023/03/07 12:40:46;;;;;;;4.83;1.90;;;5.90;1.00;;;;;;5052915;28;20420;-67
2023/03/07 12:43:36;;;;;;;7.37;3.00;;;6.00;1.00;;;;;;5051384;28;20548;-66
2023/03/07 12:46:16;;;;;;;6.00;1.73;;;5.50;1.00;;;;;;5052022;28;20424;-72
2023/03/07 12:48:52;;;;;;;4.80;2.00;;;5.20;1.00;;;;;;5051372;28;20659;-67
2023/03/07 12:51:32;;;;;;;6.17;1.60;;;5.20;1.00;;;;;;5052795;28;20449;-73
2023/03/07 12:54:11;;;;;;;4.30;1.37;;;6.20;1.00;;;;;;5052932;28;20368;-68
2023/03/07 12:56:46;;;;;;;4.13;1.70;;;7.70;1.00;;;;;;5052074;28;20417;-75
2023/03/07 12:59:14;;;;;;;3.20;1.50;;;8.60;1.00;;;;;;5032808;28;20418;-76
2023/03/07 13:01:49;;;;;;;3.43;1.87;;;8.00;1.00;;;;;;5031619;28;20426;-66
2023/03/07 13:04:27;;;;;;;2.70;1.40;;;7.40;1.00;;;;;;5047381;28;20432;-71
2023/03/07 13:06:59;;;;;;;1.50;1.17;;;7.50;1.00;;;;;;5052453;28;20458;-68
2023/03/07 13:09:26;;;;;;;8.07;1.90;;;8.00;1.00;;;;;;5052647;28;20785;-73
2023/03/07 13:12:22;;;;;;;1.33;1.20;;;9.00;1.00;;;;;;5052557;28;20482;-70